createdAt,value
2022-07-29T00:01:19.159Z,32.63
2022-07-29T00:03:47.688Z,32.72
2022-07-29T00:06:15.623Z,32.47
2022-07-29T00:08:42.886Z,32.48
2022-07-29T00:11:10.335Z,32.58
2022-07-29T00:13:37.597Z,32.60
2022-07-29T00:16:05.364Z,32.56
2022-07-29T00:18:33.252Z,32.40
2022-07-29T00:21:01.025Z,32.48
2022-07-29T00:23:28.295Z,32.50
2022-07-29T00:25:55.630Z,32.50
2022-07-29T00:28:22.844Z,32.20
2022-07-29T00:30:50.271Z,32.25
2022-07-29T00:33:17.658Z,32.29
2022-07-29T00:35:44.965Z,32.28
2022-07-29T00:38:12.900Z,32.36
2022-07-29T00:40:40.660Z,32.43
2022-07-29T00:43:12.224Z,32.46
2022-07-29T00:45:39.579Z,32.29
2022-07-29T00:48:08.012Z,32.34
2022-07-29T00:50:35.957Z,32.36
2022-07-29T00:53:04.385Z,32.27
2022-07-29T00:55:31.749Z,32.19
2022-07-29T00:57:59.555Z,32.30
2022-07-29T01:00:28.014Z,32.24
2022-07-29T01:02:55.425Z,32.16
2022-07-29T01:05:23.386Z,32.32
2022-07-29T01:07:53.708Z,32.24
2022-07-29T01:10:22.229Z,32.21
2022-07-29T01:12:50.651Z,32.00
2022-07-29T01:15:18.269Z,32.30
2022-07-29T01:17:52.732Z,32.33
2022-07-29T01:20:31.581Z,32.24
2022-07-29T01:23:08.467Z,32.26
2022-07-29T01:25:45.316Z,32.26
2022-07-29T01:28:31.485Z,32.23
2022-07-29T01:31:01.534Z,32.22
2022-07-29T01:33:49.499Z,32.29
2022-07-29T01:36:40.217Z,32.20
2022-07-29T01:39:19.896Z,32.22
2022-07-29T01:42:16.989Z,32.20
2022-07-29T01:44:52.236Z,32.09
2022-07-29T01:47:21.738Z,32.20
2022-07-29T01:49:52.106Z,32.14
2022-07-29T01:52:32.151Z,32.08
2022-07-29T01:55:00.400Z,32.18
2022-07-29T01:57:29.500Z,32.26
2022-07-29T01:59:58.220Z,32.23
2022-07-29T02:02:25.794Z,32.22
2022-07-29T02:04:53.552Z,32.13
2022-07-29T02:07:22.300Z,32.05
2022-07-29T02:09:51.538Z,32.12
2022-07-29T02:12:20.454Z,32.02
2022-07-29T02:14:52.613Z,32.12
2022-07-29T02:17:26.045Z,32.13
2022-07-29T02:19:56.450Z,32.17
2022-07-29T02:22:25.187Z,32.01
2022-07-29T02:24:52.766Z,32.06
2022-07-29T02:27:20.981Z,31.94
2022-07-29T02:29:50.004Z,32.00
2022-07-29T02:32:18.331Z,32.00
2022-07-29T02:34:46.081Z,32.05
2022-07-29T02:37:13.966Z,31.94
2022-07-29T02:39:43.328Z,32.05
2022-07-29T02:42:12.899Z,31.87
2022-07-29T02:44:40.449Z,32.03
2022-07-29T02:47:41.292Z,32.25
2022-07-29T02:50:23.699Z,32.27
2022-07-29T02:52:58.457Z,32.19
2022-07-29T02:55:38.146Z,32.11
2022-07-29T02:58:16.793Z,32.27
2022-07-29T03:00:45.839Z,32.16
2022-07-29T03:03:14.264Z,32.22
2022-07-29T03:05:41.619Z,32.06
2022-07-29T03:08:11.522Z,32.18
2022-07-29T03:10:40.526Z,32.16
2022-07-29T03:13:08.954Z,32.11
2022-07-29T03:15:36.988Z,32.06
2022-07-29T03:18:04.860Z,32.31
2022-07-29T03:20:32.317Z,32.49
2022-07-29T03:22:59.628Z,32.15
2022-07-29T03:25:28.303Z,32.17
2022-07-29T03:27:55.753Z,32.20
2022-07-29T03:30:23.656Z,32.03
2022-07-29T03:32:52.274Z,31.97
2022-07-29T03:35:20.982Z,31.82
2022-07-29T03:37:48.456Z,31.76
2022-07-29T03:40:19.283Z,31.74
2022-07-29T03:42:46.962Z,31.90
2022-07-29T03:45:16.584Z,31.72
2022-07-29T03:47:51.162Z,32.06
2022-07-29T03:50:22.017Z,31.91
2022-07-29T03:52:49.401Z,31.88
2022-07-29T03:55:17.134Z,31.91
2022-07-29T03:57:45.597Z,32.07
2022-07-29T04:00:13.247Z,32.00
2022-07-29T04:02:41.086Z,32.07
2022-07-29T04:05:13.105Z,31.89
2022-07-29T04:07:40.785Z,31.88
2022-07-29T04:10:08.913Z,31.85
2022-07-29T04:12:36.270Z,31.89
2022-07-29T04:15:05.006Z,31.82
2022-07-29T04:17:32.280Z,31.97
2022-07-29T04:19:59.638Z,31.96
2022-07-29T04:22:26.905Z,32.09
2022-07-29T04:24:54.708Z,31.75
2022-07-29T04:27:21.962Z,31.93
2022-07-29T04:29:56.596Z,32.08
2022-07-29T04:32:25.465Z,31.93
2022-07-29T04:34:52.881Z,32.03
2022-07-29T04:37:20.349Z,31.93
2022-07-29T04:39:47.592Z,31.98
2022-07-29T04:42:14.909Z,31.90
2022-07-29T04:44:44.625Z,32.00
2022-07-29T04:47:13.199Z,32.05
2022-07-29T04:49:40.554Z,32.06
2022-07-29T04:52:08.070Z,31.98
2022-07-29T04:54:36.466Z,32.08
2022-07-29T04:57:03.798Z,32.47
2022-07-29T04:59:31.061Z,32.54
2022-07-29T05:01:58.411Z,32.65
2022-07-29T05:04:25.831Z,32.72
2022-07-29T05:06:53.140Z,32.89
2022-07-29T05:09:20.437Z,32.90
2022-07-29T05:11:47.759Z,32.91
2022-07-29T05:14:15.321Z,32.74
2022-07-29T05:16:43.148Z,32.81
2022-07-29T05:19:14.178Z,32.91
2022-07-29T05:21:41.989Z,32.86
2022-07-29T05:24:09.382Z,32.84
2022-07-29T05:26:36.657Z,33.00
2022-07-29T05:29:04.199Z,33.10
2022-07-29T05:31:31.681Z,33.45
2022-07-29T05:33:58.985Z,33.61
2022-07-29T05:36:26.306Z,34.05
2022-07-29T05:38:53.587Z,33.60
2022-07-29T05:41:21.105Z,33.58
2022-07-29T05:43:48.390Z,33.43
2022-07-29T05:46:16.268Z,33.79
2022-07-29T05:48:43.622Z,33.95
2022-07-29T05:51:11.225Z,34.13
2022-07-29T05:53:38.726Z,34.03
2022-07-29T05:56:06.521Z,34.25
2022-07-29T05:58:34.132Z,34.38
2022-07-29T06:01:01.651Z,34.40
2022-07-29T06:03:29.258Z,34.37
2022-07-29T06:05:56.574Z,34.39
2022-07-29T06:08:24.536Z,34.51
2022-07-29T06:10:51.841Z,34.53
2022-07-29T06:13:19.151Z,34.52
2022-07-29T06:15:46.540Z,34.58
2022-07-29T06:18:14.424Z,34.83
2022-07-29T06:20:42.252Z,35.03
2022-07-29T06:23:10.953Z,34.66
2022-07-29T06:25:38.737Z,34.59
2022-07-29T06:28:06.082Z,34.96
2022-07-29T06:30:33.712Z,34.79
2022-07-29T06:33:02.438Z,34.50
2022-07-29T06:35:38.626Z,34.54
2022-07-29T06:38:12.068Z,34.36
2022-07-29T06:41:03.749Z,34.73
2022-07-29T06:43:33.172Z,34.55
2022-07-29T06:46:04.524Z,34.37
2022-07-29T06:48:32.221Z,34.30
2022-07-29T06:51:00.524Z,34.48
2022-07-29T06:53:28.912Z,34.53
2022-07-29T06:55:56.230Z,34.34
2022-07-29T06:58:23.664Z,34.70
2022-07-29T07:00:57.009Z,34.65
2022-07-29T07:03:24.958Z,34.86
2022-07-29T07:05:52.974Z,34.41
2022-07-29T07:08:20.564Z,34.52
2022-07-29T07:10:47.856Z,34.83
2022-07-29T07:13:18.155Z,34.81
2022-07-29T07:15:46.482Z,34.73
2022-07-29T07:18:13.793Z,34.58
2022-07-29T07:20:41.373Z,34.31
2022-07-29T07:23:08.654Z,34.38
2022-07-29T07:25:36.075Z,34.67
2022-07-29T07:28:03.523Z,34.49
2022-07-29T07:30:30.917Z,34.46
2022-07-29T07:32:58.193Z,34.47
2022-07-29T07:35:25.502Z,34.20
2022-07-29T07:37:52.757Z,34.39
2022-07-29T07:40:20.157Z,34.35
2022-07-29T07:42:47.401Z,34.47
2022-07-29T07:45:16.271Z,34.51
2022-07-29T07:47:44.143Z,34.78
2022-07-29T07:50:18.079Z,34.49
2022-07-29T07:52:51.117Z,34.69
2022-07-29T07:55:18.745Z,34.49
2022-07-29T07:57:46.620Z,34.48
2022-07-29T08:00:16.034Z,34.86
2022-07-29T08:02:44.194Z,34.91
2022-07-29T08:05:13.026Z,34.90
2022-07-29T08:07:40.532Z,34.83
2022-07-29T08:10:08.056Z,34.35
2022-07-29T08:12:35.351Z,34.42
2022-07-29T08:15:02.621Z,34.20
2022-07-29T08:17:30.216Z,34.31
2022-07-29T08:20:03.719Z,34.04
2022-07-29T08:22:30.937Z,34.46
2022-07-29T08:24:58.302Z,34.26
2022-07-29T08:27:42.984Z,34.30
2022-07-29T08:30:11.577Z,34.31
2022-07-29T08:32:55.440Z,34.38
2022-07-29T08:35:24.077Z,34.38
2022-07-29T08:37:51.684Z,34.17
2022-07-29T08:40:19.171Z,34.34
2022-07-29T08:42:46.467Z,34.20
2022-07-29T08:45:13.933Z,34.14
2022-07-29T08:47:41.237Z,33.82
2022-07-29T08:50:09.800Z,34.16
2022-07-29T08:52:38.462Z,34.30
2022-07-29T08:55:06.785Z,33.93
2022-07-29T08:57:34.884Z,34.04
2022-07-29T09:00:08.108Z,34.04
2022-07-29T09:02:46.929Z,33.92
2022-07-29T09:05:15.893Z,33.73
2022-07-29T09:07:44.904Z,34.10
2022-07-29T09:10:12.625Z,33.84
2022-07-29T09:12:40.850Z,34.06
2022-07-29T09:15:08.426Z,33.95
2022-07-29T09:17:42.763Z,33.81
2022-07-29T09:20:11.801Z,33.72
2022-07-29T09:22:42.091Z,33.60
2022-07-29T09:25:12.679Z,33.53
2022-07-29T09:27:40.133Z,33.74
2022-07-29T09:30:11.596Z,33.74
2022-07-29T09:32:59.580Z,33.97
2022-07-29T09:35:27.559Z,33.57
2022-07-29T09:37:55.264Z,33.77
2022-07-29T09:40:23.999Z,33.72
2022-07-29T09:42:52.036Z,33.70
2022-07-29T09:45:29.695Z,33.33
2022-07-29T09:48:00.120Z,33.45
2022-07-29T09:50:54.947Z,33.64
2022-07-29T09:53:33.732Z,33.64
2022-07-29T09:56:08.411Z,33.35
2022-07-29T09:58:37.116Z,33.37
2022-07-29T10:01:05.038Z,33.30
2022-07-29T10:03:32.583Z,33.25
2022-07-29T10:06:10.350Z,33.36
2022-07-29T10:08:38.488Z,33.40
2022-07-29T10:11:13.516Z,33.24
2022-07-29T10:13:41.819Z,33.68
2022-07-29T10:16:09.416Z,33.30
2022-07-29T10:18:39.329Z,33.50
2022-07-29T10:21:06.893Z,33.26
2022-07-29T10:23:46.392Z,33.07
2022-07-29T10:26:15.733Z,33.08
2022-07-29T10:28:42.985Z,33.53
2022-07-29T10:31:14.886Z,33.19
2022-07-29T10:33:54.509Z,32.87
2022-07-29T10:36:25.276Z,32.83
2022-07-29T10:39:11.465Z,32.78
2022-07-29T10:42:01.816Z,32.80
2022-07-29T10:44:31.529Z,32.81
2022-07-29T10:46:59.952Z,32.74
2022-07-29T10:49:30.609Z,33.15
2022-07-29T10:52:08.288Z,33.00
2022-07-29T10:54:48.579Z,32.75
2022-07-29T10:57:26.011Z,32.70
2022-07-29T11:00:11.121Z,32.88
2022-07-29T11:02:43.960Z,32.87
2022-07-29T11:05:13.804Z,33.03
2022-07-29T11:08:00.970Z,32.64
2022-07-29T11:10:31.318Z,32.66
2022-07-29T11:12:59.447Z,32.77
2022-07-29T11:15:28.554Z,32.86
2022-07-29T11:17:59.553Z,32.86
2022-07-29T11:20:35.015Z,32.79
2022-07-29T11:23:27.774Z,32.66
2022-07-29T11:26:23.004Z,32.48
2022-07-29T11:28:50.836Z,32.27
2022-07-29T11:31:38.274Z,32.43
2022-07-29T11:34:28.078Z,32.68
2022-07-29T11:37:15.087Z,32.47
2022-07-29T11:39:45.411Z,32.44
2022-07-29T11:42:32.681Z,32.31
2022-07-29T11:45:09.044Z,32.20
2022-07-29T11:47:54.958Z,32.28
2022-07-29T11:50:29.882Z,32.30
2022-07-29T11:52:57.764Z,32.16
2022-07-29T11:55:32.299Z,32.14
2022-07-29T11:58:03.526Z,32.07
2022-07-29T12:00:43.175Z,32.12
2022-07-29T12:03:12.115Z,32.08
2022-07-29T12:05:48.200Z,31.89
2022-07-29T12:08:20.925Z,32.14
2022-07-29T12:10:49.460Z,31.69
2022-07-29T12:13:17.948Z,31.79
2022-07-29T12:16:00.064Z,31.96
2022-07-29T12:18:27.969Z,31.84
2022-07-29T12:20:59.433Z,31.72
2022-07-29T12:23:34.661Z,31.69
2022-07-29T12:26:07.428Z,31.86
2022-07-29T12:28:38.990Z,32.23
2022-07-29T12:31:06.722Z,31.90
2022-07-29T12:33:36.191Z,31.95
2022-07-29T12:36:10.378Z,32.01
2022-07-29T12:38:41.697Z,31.70
2022-07-29T12:41:08.966Z,31.66
2022-07-29T12:43:36.387Z,31.64
2022-07-29T12:46:16.169Z,31.76
2022-07-29T12:48:44.699Z,31.87
2022-07-29T12:51:15.395Z,31.71
2022-07-29T12:54:02.580Z,32.21
2022-07-29T12:56:45.790Z,32.20
2022-07-29T12:59:18.695Z,32.01
2022-07-29T13:01:49.626Z,32.20
2022-07-29T13:04:46.234Z,32.25
2022-07-29T13:07:15.335Z,32.19
2022-07-29T13:09:44.197Z,32.18
2022-07-29T13:12:12.624Z,32.04
2022-07-29T13:14:41.514Z,31.78
2022-07-29T13:17:14.887Z,32.29
2022-07-29T13:19:49.477Z,32.29
2022-07-29T13:22:21.169Z,32.01
2022-07-29T13:24:51.569Z,31.90
2022-07-29T13:27:20.363Z,32.16
2022-07-29T13:29:47.879Z,32.13
2022-07-29T13:32:15.253Z,32.13
2022-07-29T13:34:42.561Z,32.03
2022-07-29T13:37:09.934Z,32.02
2022-07-29T13:39:38.446Z,31.94
2022-07-29T13:42:10.525Z,32.11
2022-07-29T13:44:38.384Z,32.19
2022-07-29T13:47:05.810Z,32.12
2022-07-29T13:49:33.093Z,32.16
2022-07-29T13:52:00.948Z,31.94
2022-07-29T13:54:28.565Z,32.07
2022-07-29T13:56:55.853Z,31.94
2022-07-29T13:59:23.151Z,31.87
2022-07-29T14:01:50.489Z,32.07
2022-07-29T14:04:17.930Z,32.29
2022-07-29T14:06:45.253Z,32.32
2022-07-29T14:09:12.745Z,32.42
2022-07-29T14:11:40.758Z,32.42
2022-07-29T14:14:08.301Z,32.55
2022-07-29T14:16:39.156Z,32.37
2022-07-29T14:19:09.744Z,32.68
2022-07-29T14:21:36.998Z,32.58
2022-07-29T14:24:17.885Z,32.65
2022-07-29T14:26:49.242Z,32.82
2022-07-29T14:29:16.521Z,32.54
2022-07-29T14:31:44.870Z,32.72
2022-07-29T14:34:12.218Z,32.69
2022-07-29T14:36:39.601Z,32.86
2022-07-29T14:39:06.800Z,32.62
2022-07-29T14:41:36.284Z,32.77
2022-07-29T14:44:03.762Z,32.95
2022-07-29T14:46:31.044Z,32.99
2022-07-29T14:48:58.545Z,33.02
2022-07-29T14:51:25.830Z,32.87
2022-07-29T14:54:00.135Z,32.93
2022-07-29T14:56:36.961Z,32.58
2022-07-29T14:59:05.161Z,32.36
2022-07-29T15:01:32.420Z,32.91
2022-07-29T15:04:00.036Z,32.99
2022-07-29T15:06:27.608Z,32.83
2022-07-29T15:08:55.062Z,32.70
2022-07-29T15:11:22.301Z,33.04
2022-07-29T15:13:49.651Z,33.04
2022-07-29T15:16:17.645Z,32.93
2022-07-29T15:18:45.037Z,33.05
2022-07-29T15:21:12.684Z,32.96
2022-07-29T15:23:40.101Z,32.66
2022-07-29T15:26:07.327Z,32.74
2022-07-29T15:28:34.737Z,32.81
2022-07-29T15:31:01.976Z,32.83
2022-07-29T15:33:29.307Z,32.84
2022-07-29T15:35:57.202Z,32.97
2022-07-29T15:38:28.566Z,32.52
2022-07-29T15:40:56.993Z,32.76
2022-07-29T15:43:24.290Z,32.95
2022-07-29T15:46:12.343Z,32.74
2022-07-29T15:48:40.548Z,32.46
2022-07-29T15:51:07.884Z,32.59
2022-07-29T15:53:35.442Z,32.71
2022-07-29T15:56:03.034Z,32.55
2022-07-29T15:58:31.102Z,32.81
2022-07-29T16:00:58.953Z,32.63
2022-07-29T16:03:26.368Z,32.88
2022-07-29T16:05:53.883Z,32.81
2022-07-29T16:08:21.324Z,32.84
2022-07-29T16:10:48.677Z,32.51
2022-07-29T16:13:17.002Z,32.48
2022-07-29T16:15:46.519Z,32.55
2022-07-29T16:18:30.655Z,32.78
2022-07-29T16:20:58.104Z,32.77
2022-07-29T16:23:25.584Z,32.84
2022-07-29T16:26:01.192Z,32.76
2022-07-29T16:28:30.112Z,32.63
2022-07-29T16:30:57.844Z,32.70
2022-07-29T16:33:25.206Z,32.56
2022-07-29T16:35:52.781Z,32.60
2022-07-29T16:38:20.249Z,32.71
2022-07-29T16:40:47.525Z,32.81
2022-07-29T16:43:15.051Z,32.84
2022-07-29T16:45:46.500Z,32.88
2022-07-29T16:48:14.457Z,32.92
2022-07-29T16:50:43.328Z,32.59
2022-07-29T16:53:11.145Z,32.66
2022-07-29T16:55:38.564Z,32.84
2022-07-29T16:58:09.982Z,32.80
2022-07-29T17:00:37.341Z,33.06
2022-07-29T17:03:05.602Z,32.94
2022-07-29T17:05:52.352Z,32.88
2022-07-29T17:08:20.533Z,33.14
2022-07-29T17:10:47.896Z,33.06
2022-07-29T17:13:15.206Z,32.78
2022-07-29T17:15:45.326Z,32.98
2022-07-29T17:18:13.241Z,32.66
2022-07-29T17:20:41.185Z,33.21
2022-07-29T17:23:08.561Z,32.67
2022-07-29T17:25:35.878Z,32.72
2022-07-29T17:28:03.413Z,32.79
2022-07-29T17:30:30.989Z,32.77
2022-07-29T17:32:58.284Z,33.00
2022-07-29T17:35:44.088Z,32.94
2022-07-29T17:38:11.693Z,32.71
2022-07-29T17:40:38.965Z,32.65
2022-07-29T17:43:09.330Z,32.65
2022-07-29T17:45:49.436Z,32.74
2022-07-29T17:48:18.988Z,32.79
2022-07-29T17:50:46.753Z,32.63
2022-07-29T17:53:16.013Z,32.71
2022-07-29T17:55:45.808Z,32.77
2022-07-29T17:58:13.307Z,32.37
2022-07-29T18:00:40.701Z,32.85
2022-07-29T18:03:08.523Z,32.75
2022-07-29T18:05:35.811Z,32.50
2022-07-29T18:08:03.167Z,32.64
2022-07-29T18:10:30.688Z,32.76
2022-07-29T18:12:58.172Z,32.97
2022-07-29T18:15:25.477Z,32.77
2022-07-29T18:17:57.630Z,32.66
2022-07-29T18:20:28.100Z,32.81
2022-07-29T18:22:55.471Z,32.63
2022-07-29T18:25:23.740Z,32.45
2022-07-29T18:27:51.493Z,32.52
2022-07-29T18:30:20.139Z,32.67
2022-07-29T18:33:11.363Z,32.55
2022-07-29T18:35:36.992Z,32.57
2022-07-29T18:38:06.063Z,32.48
2022-07-29T18:40:33.409Z,32.55
2022-07-29T18:43:00.734Z,32.63
2022-07-29T18:45:28.774Z,32.63
2022-07-29T18:47:57.037Z,32.50
2022-07-29T18:50:28.889Z,32.59
2022-07-29T18:52:58.908Z,32.46
2022-07-29T18:55:26.589Z,32.42
2022-07-29T18:57:56.636Z,32.49
2022-07-29T19:00:25.750Z,32.51
2022-07-29T19:02:53.247Z,32.49
2022-07-29T19:05:21.507Z,32.56
2022-07-29T19:07:48.997Z,32.39
2022-07-29T19:10:16.698Z,32.39
2022-07-29T19:12:44.330Z,32.19
2022-07-29T19:15:11.870Z,32.33
2022-07-29T19:17:39.159Z,32.20
2022-07-29T19:20:07.509Z,32.48
2022-07-29T19:22:34.937Z,32.42
2022-07-29T19:25:02.239Z,32.40
2022-07-29T19:27:29.500Z,32.55
2022-07-29T19:29:59.424Z,32.60
2022-07-29T19:32:26.933Z,32.67
2022-07-29T19:35:12.605Z,32.70
2022-07-29T19:37:40.141Z,32.51
2022-07-29T19:40:07.573Z,32.47
2022-07-29T19:42:35.099Z,32.65
2022-07-29T19:45:02.328Z,32.72
2022-07-29T19:47:29.803Z,32.72
2022-07-29T19:49:57.099Z,32.92
2022-07-29T19:52:24.397Z,32.95
2022-07-29T19:54:51.722Z,32.65
2022-07-29T19:57:19.275Z,32.89
2022-07-29T19:59:46.494Z,32.81
2022-07-29T20:02:13.909Z,32.61
2022-07-29T20:04:42.891Z,32.74
2022-07-29T20:07:10.197Z,32.69
2022-07-29T20:09:40.103Z,32.71
2022-07-29T20:12:11.115Z,32.78
2022-07-29T20:14:38.585Z,32.77
2022-07-29T20:17:06.106Z,32.84
2022-07-29T20:19:33.722Z,32.93
2022-07-29T20:22:01.014Z,32.91
2022-07-29T20:24:28.377Z,32.99
2022-07-29T20:26:55.693Z,32.96
2022-07-29T20:29:23.192Z,33.08
2022-07-29T20:31:53.306Z,32.85
2022-07-29T20:34:23.732Z,32.98
2022-07-29T20:36:50.987Z,32.89
2022-07-29T20:39:18.364Z,32.86
2022-07-29T20:41:45.749Z,32.99
2022-07-29T20:44:13.297Z,32.88
2022-07-29T20:46:40.928Z,33.23
2022-07-29T20:49:09.022Z,33.44
2022-07-29T20:51:43.852Z,33.88
2022-07-29T20:54:12.151Z,34.16
2022-07-29T20:56:39.677Z,34.18
2022-07-29T20:59:07.791Z,34.59
2022-07-29T21:01:35.745Z,34.55
2022-07-29T21:04:03.635Z,34.66
2022-07-29T21:06:31.273Z,34.58
2022-07-29T21:08:59.846Z,34.72
2022-07-29T21:11:43.219Z,34.65
2022-07-29T21:14:38.317Z,34.99
2022-07-29T21:17:07.312Z,34.83
2022-07-29T21:19:34.931Z,34.58
2022-07-29T21:22:02.854Z,34.82
2022-07-29T21:24:30.112Z,34.66
2022-07-29T21:27:21.707Z,34.64
2022-07-29T21:29:49.737Z,34.85
2022-07-29T21:32:27.677Z,35.01
2022-07-29T21:34:58.174Z,34.73
2022-07-29T21:37:25.448Z,35.11
2022-07-29T21:39:52.765Z,34.97
2022-07-29T21:42:19.979Z,34.90
2022-07-29T21:44:47.443Z,35.00
2022-07-29T21:47:14.691Z,35.04
2022-07-29T21:49:42.259Z,34.95
2022-07-29T21:52:09.581Z,35.37
2022-07-29T21:54:36.995Z,35.44
2022-07-29T21:57:05.000Z,35.20
2022-07-29T21:59:32.823Z,34.90
2022-07-29T22:02:03.560Z,35.01
2022-07-29T22:04:31.283Z,35.25
2022-07-29T22:06:58.993Z,35.25
2022-07-29T22:09:26.649Z,35.33
2022-07-29T22:11:54.886Z,34.91
2022-07-29T22:14:22.457Z,34.98
2022-07-29T22:16:49.955Z,34.92
2022-07-29T22:19:17.439Z,35.12
2022-07-29T22:21:44.901Z,35.01
2022-07-29T22:24:12.275Z,35.20
2022-07-29T22:26:39.606Z,35.11
2022-07-29T22:29:06.937Z,34.91
2022-07-29T22:31:34.211Z,34.81
2022-07-29T22:34:01.565Z,35.08
2022-07-29T22:36:28.856Z,34.74
2022-07-29T22:38:56.243Z,34.93
2022-07-29T22:41:23.486Z,35.04
2022-07-29T22:43:50.841Z,35.16
2022-07-29T22:46:18.166Z,35.05
2022-07-29T22:48:45.698Z,35.17
2022-07-29T22:51:14.168Z,35.12
2022-07-29T22:53:41.512Z,34.98
2022-07-29T22:56:08.727Z,34.86
2022-07-29T22:58:36.409Z,34.83
2022-07-29T23:01:03.681Z,34.87
2022-07-29T23:03:31.048Z,34.80
2022-07-29T23:05:58.430Z,34.62
2022-07-29T23:08:25.760Z,34.77
2022-07-29T23:10:53.021Z,34.75
2022-07-29T23:13:20.458Z,34.77
2022-07-29T23:15:48.038Z,34.76
2022-07-29T23:18:15.478Z,34.54
2022-07-29T23:20:43.927Z,34.54
2022-07-29T23:23:11.321Z,34.74
2022-07-29T23:25:38.554Z,34.58
2022-07-29T23:28:11.683Z,34.49
2022-07-29T23:30:43.541Z,34.32
2022-07-29T23:33:10.976Z,34.30
2022-07-29T23:35:38.221Z,34.53
2022-07-29T23:38:05.542Z,34.40
2022-07-29T23:40:32.938Z,34.12
2022-07-29T23:43:00.245Z,34.51
2022-07-29T23:45:40.043Z,34.39
2022-07-29T23:48:12.034Z,34.33
2022-07-29T23:50:39.268Z,34.40
2022-07-29T23:53:06.528Z,34.44
2022-07-29T23:55:37.879Z,34.48
2022-07-29T23:58:06.518Z,34.46
